createdAt,value
2017-10-26T00:00:30.434Z,17.25
2017-10-26T00:01:11.020Z,17.38
2017-10-26T00:01:51.524Z,17.37
2017-10-26T00:02:32.087Z,17.38
2017-10-26T00:03:12.613Z,17.31
2017-10-26T00:03:53.186Z,17.31
2017-10-26T00:04:33.714Z,17.4
2017-10-26T00:05:14.248Z,17.36
2017-10-26T00:05:54.838Z,17.41
2017-10-26T00:06:35.363Z,17.33
2017-10-26T00:07:15.924Z,17.33
2017-10-26T00:07:56.512Z,17.23
2017-10-26T00:08:37.054Z,17.41
2017-10-26T00:09:17.617Z,17.34
2017-10-26T00:09:58.194Z,17.21
2017-10-26T00:10:38.630Z,17.22
2017-10-26T00:11:19.201Z,17.22
2017-10-26T00:11:59.856Z,17.28
2017-10-26T00:12:40.380Z,17.28
2017-10-26T00:13:20.923Z,17.21
2017-10-26T00:14:01.482Z,17.23
2017-10-26T00:14:42.045Z,17.28
2017-10-26T00:15:22.565Z,17.21
2017-10-26T00:16:03.083Z,17.26
2017-10-26T00:16:43.628Z,17.21
2017-10-26T00:17:24.198Z,17.21
2017-10-26T00:18:04.832Z,17.25
2017-10-26T00:18:45.353Z,17.22
2017-10-26T00:19:25.895Z,17.22
2017-10-26T00:20:06.426Z,17.23
2017-10-26T00:20:47.000Z,17.18
2017-10-26T00:21:27.515Z,17.23
2017-10-26T00:22:08.009Z,17.19
2017-10-26T00:22:48.545Z,17.21
2017-10-26T00:23:29.146Z,17.25
2017-10-26T00:24:09.673Z,17.22
2017-10-26T00:24:50.261Z,17.22
2017-10-26T00:25:30.749Z,17.22
2017-10-26T00:26:11.269Z,17.21
2017-10-26T00:26:51.842Z,17.18
2017-10-26T00:27:32.418Z,17.25
2017-10-26T00:28:12.915Z,17.22
2017-10-26T00:28:53.435Z,17.14
2017-10-26T00:29:33.991Z,17.11
2017-10-26T00:30:14.550Z,17.15
2017-10-26T00:30:55.034Z,17.08
2017-10-26T00:31:35.597Z,17.11
2017-10-26T00:32:16.068Z,17.19
2017-10-26T00:32:56.646Z,17.12
2017-10-26T00:33:37.167Z,17.12
2017-10-26T00:34:17.717Z,17.22
2017-10-26T00:34:58.287Z,17.16
2017-10-26T00:35:38.869Z,17.18
2017-10-26T00:36:19.408Z,17.06
2017-10-26T00:36:59.958Z,17.11
2017-10-26T00:37:40.682Z,17.16
2017-10-26T00:38:21.204Z,17.12
2017-10-26T00:39:01.780Z,17.15
2017-10-26T00:39:42.258Z,17.08
2017-10-26T00:40:22.863Z,17.07
2017-10-26T00:41:03.359Z,17.11
2017-10-26T00:41:43.961Z,17.12
2017-10-26T00:42:24.429Z,17.14
2017-10-26T00:43:04.955Z,17.12
2017-10-26T00:43:45.568Z,17.08
2017-10-26T00:44:26.061Z,17.12
2017-10-26T00:45:06.607Z,17.11
2017-10-26T00:45:47.128Z,17.14
2017-10-26T00:46:27.644Z,17.04
2017-10-26T00:47:08.246Z,17.21
2017-10-26T00:47:48.761Z,17.22
2017-10-26T00:48:29.352Z,17.18
2017-10-26T00:49:09.863Z,17.15
2017-10-26T00:49:50.446Z,17.16
2017-10-26T00:50:30.945Z,17.08
2017-10-26T00:51:11.622Z,17.14
2017-10-26T00:51:52.148Z,17.11
2017-10-26T00:52:32.688Z,17.07
2017-10-26T00:53:13.241Z,17.04
2017-10-26T00:53:53.790Z,16.98
2017-10-26T00:54:34.356Z,17.04
2017-10-26T00:55:14.895Z,16.98
2017-10-26T00:55:55.441Z,16.98
2017-10-26T00:56:35.988Z,16.98
2017-10-26T00:57:16.587Z,16.98
2017-10-26T00:57:57.136Z,16.98
2017-10-26T00:58:37.660Z,17.03
2017-10-26T00:59:18.182Z,17.06
2017-10-26T00:59:58.712Z,17.06
2017-10-26T01:00:39.226Z,16.97
2017-10-26T01:01:19.787Z,17.03
2017-10-26T01:02:00.310Z,17.08
2017-10-26T01:02:40.864Z,17.12
2017-10-26T01:03:21.360Z,17.07
2017-10-26T01:04:01.940Z,17.14
2017-10-26T01:04:42.479Z,17.06
2017-10-26T01:05:23.034Z,17.11
2017-10-26T01:06:03.615Z,17.06
2017-10-26T01:06:44.086Z,17.16
2017-10-26T01:07:24.686Z,17.08
2017-10-26T01:08:05.195Z,17.11
2017-10-26T01:08:45.734Z,17.06
2017-10-26T01:09:26.356Z,17.07
2017-10-26T01:10:06.868Z,17.11
2017-10-26T01:10:47.361Z,17.01
2017-10-26T01:11:27.897Z,17.04
2017-10-26T01:12:08.428Z,17.12
2017-10-26T01:12:49.010Z,17.07
2017-10-26T01:13:29.565Z,17.07
2017-10-26T01:14:10.101Z,16.97
2017-10-26T01:14:50.665Z,17.06
2017-10-26T01:15:31.174Z,16.98
2017-10-26T01:16:11.765Z,17.07
2017-10-26T01:16:52.354Z,17.07
2017-10-26T01:17:32.857Z,17.08
2017-10-26T01:18:13.416Z,17.01
2017-10-26T01:18:53.944Z,17
2017-10-26T01:19:34.484Z,16.97
2017-10-26T01:20:15.048Z,16.97
2017-10-26T01:20:55.555Z,16.93
2017-10-26T01:21:36.150Z,16.94
2017-10-26T01:22:16.692Z,16.85
2017-10-26T01:22:57.249Z,16.88
2017-10-26T01:23:37.778Z,16.93
2017-10-26T01:24:18.321Z,16.88
2017-10-26T01:24:58.866Z,16.93
2017-10-26T01:25:39.438Z,16.93
2017-10-26T01:26:20.014Z,16.73
2017-10-26T01:27:00.578Z,16.83
2017-10-26T01:27:41.161Z,16.81
2017-10-26T01:28:21.694Z,16.85
2017-10-26T01:29:02.227Z,16.89
2017-10-26T01:29:42.753Z,16.83
2017-10-26T01:30:23.282Z,16.86
2017-10-26T01:31:03.855Z,16.83
2017-10-26T01:31:44.354Z,16.79
2017-10-26T01:32:25.136Z,16.83
2017-10-26T01:33:05.653Z,16.93
2017-10-26T01:33:46.242Z,16.89
2017-10-26T01:34:26.789Z,16.86
2017-10-26T01:35:07.379Z,16.86
2017-10-26T01:35:47.888Z,16.85
2017-10-26T01:36:28.466Z,16.81
2017-10-26T01:37:09.019Z,16.79
2017-10-26T01:37:49.519Z,16.82
2017-10-26T01:38:30.075Z,16.85
2017-10-26T01:39:10.628Z,16.73
2017-10-26T01:39:51.192Z,16.85
2017-10-26T01:40:31.704Z,16.79
2017-10-26T01:41:12.218Z,16.79
2017-10-26T01:41:52.810Z,16.86
2017-10-26T01:42:33.348Z,16.75
2017-10-26T01:43:13.936Z,16.82
2017-10-26T01:43:54.464Z,16.82
2017-10-26T01:44:34.987Z,16.82
2017-10-26T01:45:15.486Z,16.83
2017-10-26T01:45:56.077Z,16.82
2017-10-26T01:46:36.591Z,16.82
2017-10-26T01:47:17.119Z,16.82
2017-10-26T01:47:57.676Z,16.81
2017-10-26T01:48:38.274Z,16.76
2017-10-26T01:49:18.852Z,16.79
2017-10-26T01:49:59.383Z,16.79
2017-10-26T01:50:39.927Z,16.76
2017-10-26T01:51:20.445Z,16.73
2017-10-26T01:52:00.964Z,16.81
2017-10-26T01:52:41.498Z,16.73
2017-10-26T01:53:22.028Z,16.85
2017-10-26T01:54:02.593Z,16.68
2017-10-26T01:54:43.131Z,16.67
2017-10-26T01:55:23.627Z,16.81
2017-10-26T01:56:04.203Z,16.78
2017-10-26T01:56:44.736Z,16.83
2017-10-26T01:57:25.877Z,16.73
2017-10-26T01:58:05.758Z,16.6
2017-10-26T01:58:46.349Z,16.7
2017-10-26T01:59:26.939Z,16.78
2017-10-26T02:00:07.492Z,16.76
2017-10-26T02:00:47.981Z,16.68
2017-10-26T02:01:28.497Z,16.68
2017-10-26T02:02:09.083Z,16.75
2017-10-26T02:02:49.626Z,16.71
2017-10-26T02:03:30.140Z,16.76
2017-10-26T02:04:10.680Z,16.78
2017-10-26T02:04:51.226Z,16.68
2017-10-26T02:05:31.726Z,16.78
2017-10-26T02:06:12.265Z,16.73
2017-10-26T02:06:52.861Z,16.78
2017-10-26T02:07:33.417Z,16.68
2017-10-26T02:08:13.914Z,16.78
2017-10-26T02:08:54.476Z,16.68
2017-10-26T02:09:35.029Z,16.73
2017-10-26T02:10:15.615Z,16.7
2017-10-26T02:10:56.224Z,16.75
2017-10-26T02:11:36.805Z,16.75
2017-10-26T02:12:17.333Z,16.68
2017-10-26T02:12:57.867Z,16.64
2017-10-26T02:13:38.398Z,16.71
2017-10-26T02:14:18.921Z,16.78
2017-10-26T02:14:59.522Z,16.76
2017-10-26T02:15:40.063Z,16.63
2017-10-26T02:16:20.587Z,16.56
2017-10-26T02:17:01.101Z,16.56
2017-10-26T02:17:41.630Z,16.56
2017-10-26T02:18:22.184Z,16.53
2017-10-26T02:19:02.709Z,16.6
2017-10-26T02:19:43.255Z,16.64
2017-10-26T02:20:23.733Z,16.71
2017-10-26T02:21:04.264Z,16.63
2017-10-26T02:21:44.794Z,16.68
2017-10-26T02:22:25.371Z,16.71
2017-10-26T02:23:05.916Z,16.73
2017-10-26T02:23:46.473Z,16.73
2017-10-26T02:24:27.007Z,16.7
2017-10-26T02:25:07.577Z,16.66
2017-10-26T02:25:48.054Z,16.67
2017-10-26T02:26:28.617Z,16.75
2017-10-26T02:27:09.142Z,16.71
2017-10-26T02:27:49.735Z,16.66
2017-10-26T02:28:30.305Z,16.5
2017-10-26T02:29:10.797Z,16.57
2017-10-26T02:29:51.344Z,16.52
2017-10-26T02:30:31.939Z,16.49
2017-10-26T02:31:12.475Z,16.58
2017-10-26T02:31:52.985Z,16.56
2017-10-26T02:32:33.538Z,16.56
2017-10-26T02:33:14.107Z,16.53
2017-10-26T02:33:54.641Z,16.6
2017-10-26T02:34:35.181Z,16.57
2017-10-26T02:35:15.711Z,16.56
2017-10-26T02:35:56.239Z,16.58
2017-10-26T02:36:36.747Z,16.46
2017-10-26T02:37:17.276Z,16.49
2017-10-26T02:37:57.836Z,16.43
2017-10-26T02:38:38.367Z,16.34
2017-10-26T02:39:18.900Z,16.43
2017-10-26T02:39:59.399Z,16.45
2017-10-26T02:40:39.983Z,16.49
2017-10-26T02:41:20.572Z,16.53
2017-10-26T02:42:01.104Z,16.45
2017-10-26T02:42:41.668Z,16.5
2017-10-26T02:43:22.175Z,16.5
2017-10-26T02:44:02.769Z,16.43
2017-10-26T02:44:43.290Z,16.42
2017-10-26T02:45:23.796Z,16.43
2017-10-26T02:46:04.366Z,16.5
2017-10-26T02:46:44.841Z,16.48
2017-10-26T02:47:25.353Z,16.45
2017-10-26T02:48:06.028Z,16.43
2017-10-26T02:48:46.595Z,16.43
2017-10-26T02:49:27.111Z,16.45
2017-10-26T02:50:07.641Z,16.45
2017-10-26T02:50:48.190Z,16.42
2017-10-26T02:51:28.734Z,16.48
2017-10-26T02:52:09.281Z,16.45
2017-10-26T02:52:49.836Z,16.43
2017-10-26T02:53:30.340Z,16.42
2017-10-26T02:54:10.924Z,16.46
2017-10-26T02:54:51.430Z,16.49
2017-10-26T02:55:31.991Z,16.46
2017-10-26T02:56:12.543Z,16.43
2017-10-26T02:56:53.060Z,16.38
2017-10-26T02:57:33.613Z,16.45
2017-10-26T02:58:14.144Z,16.38
2017-10-26T02:58:54.662Z,16.43
2017-10-26T02:59:35.216Z,16.41
2017-10-26T03:00:16.558Z,16.39
2017-10-26T03:00:57.129Z,16.45
2017-10-26T03:01:37.647Z,16.43
2017-10-26T03:02:18.160Z,16.49
2017-10-26T03:02:58.717Z,16.48
2017-10-26T03:03:39.255Z,16.45
2017-10-26T03:04:19.806Z,16.43
2017-10-26T03:05:00.368Z,16.49
2017-10-26T03:05:40.868Z,16.46
2017-10-26T03:06:21.429Z,16.41
2017-10-26T03:07:01.994Z,16.39
2017-10-26T03:07:42.553Z,16.39
2017-10-26T03:08:23.081Z,16.41
2017-10-26T03:09:03.584Z,16.42
2017-10-26T03:09:44.167Z,16.39
2017-10-26T03:10:24.705Z,16.45
2017-10-26T03:11:05.250Z,16.42
2017-10-26T03:11:45.813Z,16.33
2017-10-26T03:12:26.305Z,16.39
2017-10-26T03:13:06.945Z,16.41
2017-10-26T03:13:47.429Z,16.39
2017-10-26T03:14:27.970Z,16.45
2017-10-26T03:15:08.518Z,16.31
2017-10-26T03:15:49.072Z,16.38
2017-10-26T03:16:29.638Z,16.38
2017-10-26T03:17:10.185Z,16.41
2017-10-26T03:17:50.749Z,16.33
2017-10-26T03:18:31.243Z,16.3
2017-10-26T03:19:11.845Z,16.24
2017-10-26T03:19:52.306Z,16.39
2017-10-26T03:20:32.865Z,16.39
2017-10-26T03:21:13.414Z,16.28
2017-10-26T03:21:53.926Z,16.31
2017-10-26T03:22:34.497Z,16.3
2017-10-26T03:23:15.013Z,16.28
2017-10-26T03:23:55.571Z,16.43
2017-10-26T03:24:36.068Z,16.39
2017-10-26T03:25:16.586Z,16.25
2017-10-26T03:25:57.199Z,16.3
2017-10-26T03:26:37.804Z,16.3
2017-10-26T03:27:18.320Z,16.28
2017-10-26T03:27:58.810Z,16.33
2017-10-26T03:28:39.337Z,16.28
2017-10-26T03:29:19.873Z,16.31
2017-10-26T03:30:00.410Z,16.39
2017-10-26T03:30:40.975Z,16.43
2017-10-26T03:31:21.480Z,16.41
2017-10-26T03:32:02.080Z,16.39
2017-10-26T03:32:42.614Z,16.42
2017-10-26T03:33:23.914Z,16.38
2017-10-26T03:34:03.653Z,16.39
2017-10-26T03:34:44.193Z,16.43
2017-10-26T03:35:24.705Z,16.5
2017-10-26T03:36:05.275Z,16.42
2017-10-26T03:36:45.818Z,16.38
2017-10-26T03:37:26.334Z,16.43
2017-10-26T03:38:06.932Z,16.45
2017-10-26T03:38:47.462Z,16.46
2017-10-26T03:39:28.067Z,16.46
2017-10-26T03:40:08.540Z,16.42
2017-10-26T03:40:49.076Z,16.43
2017-10-26T03:41:29.616Z,16.48
2017-10-26T03:42:10.173Z,16.42
2017-10-26T03:42:50.673Z,16.53
2017-10-26T03:43:31.199Z,16.5
2017-10-26T03:44:11.726Z,16.45
2017-10-26T03:44:52.262Z,16.42
2017-10-26T03:45:32.806Z,16.41
2017-10-26T03:46:13.316Z,16.41
2017-10-26T03:46:53.898Z,16.42
2017-10-26T03:47:34.398Z,16.56
2017-10-26T03:48:14.927Z,16.48
2017-10-26T03:48:55.448Z,16.49
2017-10-26T03:49:36.001Z,16.43
2017-10-26T03:50:16.541Z,16.45
2017-10-26T03:50:57.081Z,16.43
2017-10-26T03:51:37.626Z,16.43
2017-10-26T03:52:18.155Z,16.45
2017-10-26T03:52:58.746Z,16.41
2017-10-26T03:53:39.258Z,16.52
2017-10-26T03:54:19.810Z,16.48
2017-10-26T03:55:00.338Z,16.5
2017-10-26T03:55:40.869Z,16.45
2017-10-26T03:56:21.378Z,16.56
2017-10-26T03:57:01.907Z,16.42
2017-10-26T03:57:42.461Z,16.49
2017-10-26T03:58:23.060Z,16.46
2017-10-26T03:59:03.601Z,16.48
2017-10-26T03:59:44.194Z,16.49
2017-10-26T04:00:24.684Z,16.52
2017-10-26T04:01:05.228Z,16.5
2017-10-26T04:01:45.762Z,16.48
2017-10-26T04:02:26.293Z,16.52
2017-10-26T04:03:06.815Z,16.5
2017-10-26T04:03:47.385Z,16.43
2017-10-26T04:04:27.898Z,16.52
2017-10-26T04:05:08.446Z,16.45
2017-10-26T04:05:49.018Z,16.43
2017-10-26T04:06:29.557Z,16.45
2017-10-26T04:07:10.092Z,16.42
2017-10-26T04:07:50.571Z,16.39
2017-10-26T04:08:31.149Z,16.39
2017-10-26T04:09:11.656Z,16.45
2017-10-26T04:09:52.203Z,16.43
2017-10-26T04:10:32.775Z,16.42
2017-10-26T04:11:13.275Z,16.35
2017-10-26T04:11:53.796Z,16.41
2017-10-26T04:12:34.325Z,16.41
2017-10-26T04:13:14.870Z,16.33
2017-10-26T04:13:55.432Z,16.28
2017-10-26T04:14:35.937Z,16.25
2017-10-26T04:15:16.522Z,16.27
2017-10-26T04:15:57.071Z,16.27
2017-10-26T04:16:37.603Z,16.17
2017-10-26T04:17:18.184Z,16.09
2017-10-26T04:17:58.714Z,16.08
2017-10-26T04:18:39.259Z,15.83
2017-10-26T04:19:19.812Z,15.87
2017-10-26T04:20:00.284Z,15.86
2017-10-26T04:20:40.910Z,15.92
2017-10-26T04:21:21.492Z,15.87
2017-10-26T04:22:02.009Z,15.75
2017-10-26T04:22:42.574Z,15.74
2017-10-26T04:23:23.087Z,15.69
2017-10-26T04:24:03.575Z,15.67
2017-10-26T04:24:44.173Z,15.72
2017-10-26T04:25:24.906Z,15.75
2017-10-26T04:26:05.464Z,15.75
2017-10-26T04:26:45.921Z,15.84
2017-10-26T04:27:26.470Z,15.82
2017-10-26T04:28:07.028Z,15.75
2017-10-26T04:28:47.516Z,15.71
2017-10-26T04:29:28.100Z,15.8
2017-10-26T04:30:08.639Z,15.78
2017-10-26T04:30:49.171Z,15.93
2017-10-26T04:31:29.684Z,15.93
2017-10-26T04:32:10.231Z,15.83
2017-10-26T04:32:50.760Z,15.92
2017-10-26T04:33:31.292Z,15.89
2017-10-26T04:34:11.837Z,16
2017-10-26T04:34:52.344Z,16.05
2017-10-26T04:35:32.886Z,16.08
2017-10-26T04:36:13.453Z,16.09
2017-10-26T04:36:53.998Z,16.08
2017-10-26T04:37:34.529Z,16.07
2017-10-26T04:38:15.095Z,16.12
2017-10-26T04:38:55.692Z,16.11
2017-10-26T04:39:36.196Z,16.08
2017-10-26T04:40:16.708Z,16.15
2017-10-26T04:40:57.251Z,16.05
2017-10-26T04:41:37.744Z,16.12
2017-10-26T04:42:18.276Z,16.05
2017-10-26T04:42:58.785Z,16.11
2017-10-26T04:43:39.921Z,16.08
2017-10-26T04:44:20.469Z,16.09
2017-10-26T04:45:01.076Z,16.14
2017-10-26T04:45:41.601Z,16.05
2017-10-26T04:46:22.082Z,16.14
2017-10-26T04:47:02.683Z,16.14
2017-10-26T04:47:43.232Z,16.12
2017-10-26T04:48:23.784Z,16.12
2017-10-26T04:49:04.295Z,16.11
2017-10-26T04:49:44.809Z,16.09
2017-10-26T04:50:25.372Z,16.08
2017-10-26T04:51:05.970Z,16.09
2017-10-26T04:51:46.466Z,16.08
2017-10-26T04:52:27.006Z,16.09
2017-10-26T04:53:07.515Z,16.01
2017-10-26T04:53:48.086Z,16.09
2017-10-26T04:54:28.679Z,16.14
2017-10-26T04:55:09.221Z,16.11
2017-10-26T04:55:49.752Z,16.08
2017-10-26T04:56:30.263Z,16.14
2017-10-26T04:57:10.935Z,16.2
2017-10-26T04:57:51.462Z,16.15
2017-10-26T04:58:32.020Z,16.23
2017-10-26T04:59:12.528Z,16.25
2017-10-26T04:59:53.035Z,16.21
2017-10-26T05:00:33.624Z,16.14
2017-10-26T05:01:14.125Z,16.23
2017-10-26T05:01:54.637Z,16.14
2017-10-26T05:02:35.184Z,16.11
2017-10-26T05:03:15.708Z,16.11
2017-10-26T05:03:56.367Z,16.12
2017-10-26T05:04:37.672Z,16.12
2017-10-26T05:05:18.153Z,16.09
2017-10-26T05:05:58.683Z,16.17
2017-10-26T05:06:39.238Z,16.2
2017-10-26T05:07:19.777Z,16.11
2017-10-26T05:08:00.349Z,16.17
2017-10-26T05:08:40.901Z,16.2
2017-10-26T05:09:21.404Z,16.21
2017-10-26T05:10:04.102Z,16.25
2017-10-26T05:10:42.499Z,16.25
2017-10-26T05:11:23.112Z,16.33
2017-10-26T05:12:03.708Z,16.33
2017-10-26T05:12:44.152Z,16.34
2017-10-26T05:13:24.695Z,16.39
2017-10-26T05:14:05.269Z,16.31
2017-10-26T05:14:45.753Z,16.35
2017-10-26T05:15:26.306Z,16.39
2017-10-26T05:16:06.868Z,16.39
2017-10-26T05:16:47.384Z,16.35
2017-10-26T05:17:27.907Z,16.46
2017-10-26T05:18:08.411Z,16.43
2017-10-26T05:18:49.037Z,16.48
2017-10-26T05:19:29.519Z,16.49
2017-10-26T05:20:10.090Z,16.56
2017-10-26T05:20:50.602Z,16.57
2017-10-26T05:21:31.139Z,16.58
2017-10-26T05:22:11.686Z,16.57
2017-10-26T05:22:52.266Z,16.57
2017-10-26T05:23:32.827Z,16.58
2017-10-26T05:24:13.365Z,16.6
2017-10-26T05:24:53.841Z,16.67
2017-10-26T05:25:34.404Z,16.7
2017-10-26T05:26:14.921Z,16.76
2017-10-26T05:26:55.463Z,16.68
2017-10-26T05:27:36.003Z,16.6
2017-10-26T05:28:16.615Z,16.67
2017-10-26T05:28:57.155Z,16.7
2017-10-26T05:29:37.687Z,16.71
2017-10-26T05:30:18.247Z,16.68
2017-10-26T05:30:58.763Z,16.71
2017-10-26T05:31:39.313Z,16.67
2017-10-26T05:32:19.848Z,16.61
2017-10-26T05:33:00.379Z,16.52
2017-10-26T05:33:40.941Z,16.46
2017-10-26T05:34:21.486Z,16.45
2017-10-26T05:35:02.030Z,16.46
2017-10-26T05:35:42.650Z,16.5
2017-10-26T05:36:23.199Z,16.52
2017-10-26T05:37:04.399Z,16.5
2017-10-26T05:37:45.494Z,16.58
2017-10-26T05:38:26.121Z,16.52
2017-10-26T05:39:06.660Z,16.52
2017-10-26T05:39:47.436Z,16.6
2017-10-26T05:40:27.982Z,16.57
2017-10-26T05:41:08.540Z,16.57
2017-10-26T05:41:49.066Z,16.41
2017-10-26T05:42:29.584Z,16.45
2017-10-26T05:43:10.108Z,16.45
2017-10-26T05:43:50.881Z,16.56
2017-10-26T05:44:31.459Z,16.48
2017-10-26T05:45:11.992Z,16.35
2017-10-26T05:45:52.508Z,16.35
2017-10-26T05:46:33.144Z,16.41
2017-10-26T05:47:13.601Z,16.42
2017-10-26T05:47:54.184Z,16.43
2017-10-26T05:48:34.741Z,16.41
2017-10-26T05:49:15.203Z,16.41
2017-10-26T05:49:55.715Z,16.43
2017-10-26T05:50:36.254Z,16.42
2017-10-26T05:51:16.815Z,16.42
2017-10-26T05:51:57.385Z,16.45
2017-10-26T05:52:38.001Z,16.45
2017-10-26T05:53:18.586Z,16.49
2017-10-26T05:53:59.110Z,16.49
2017-10-26T05:54:39.680Z,16.5
2017-10-26T05:55:20.215Z,16.41
2017-10-26T05:56:00.745Z,16.43
2017-10-26T05:56:41.297Z,16.46
2017-10-26T05:57:21.815Z,16.49
2017-10-26T05:58:02.361Z,16.42
2017-10-26T05:58:42.975Z,16.46
2017-10-26T05:59:23.520Z,16.43
2017-10-26T06:00:04.224Z,16.46
2017-10-26T06:00:44.879Z,16.49
2017-10-26T06:01:25.398Z,16.45
2017-10-26T06:02:05.967Z,16.6
2017-10-26T06:02:46.575Z,16.52
2017-10-26T06:03:27.124Z,16.6
2017-10-26T06:04:07.611Z,16.6
2017-10-26T06:04:48.849Z,16.58
2017-10-26T06:05:29.405Z,16.5
2017-10-26T06:06:09.984Z,16.53
2017-10-26T06:06:50.513Z,16.66
2017-10-26T06:07:31.093Z,16.76
2017-10-26T06:08:11.976Z,16.78
2017-10-26T06:08:52.503Z,16.79
2017-10-26T06:09:33.299Z,16.82
2017-10-26T06:10:13.858Z,16.79
2017-10-26T06:10:54.612Z,16.81
2017-10-26T06:11:35.230Z,16.89
2017-10-26T06:12:15.806Z,16.88
2017-10-26T06:12:56.514Z,16.83
2017-10-26T06:13:37.090Z,16.81
2017-10-26T06:14:17.715Z,16.73
2017-10-26T06:14:58.280Z,16.83
2017-10-26T06:15:38.972Z,16.91
2017-10-26T06:16:19.397Z,16.88
2017-10-26T06:17:00.000Z,16.94
2017-10-26T06:17:40.799Z,16.82
2017-10-26T06:18:21.406Z,16.85
2017-10-26T06:19:02.160Z,16.81
2017-10-26T06:19:42.701Z,16.88
2017-10-26T06:20:23.286Z,16.81
2017-10-26T06:21:03.804Z,16.83
2017-10-26T06:21:44.413Z,16.86
2017-10-26T06:22:25.048Z,16.98
2017-10-26T06:23:05.649Z,16.97
2017-10-26T06:23:46.487Z,16.98
2017-10-26T06:24:26.861Z,17.03
2017-10-26T06:25:07.383Z,17.12
2017-10-26T06:25:47.916Z,17.19
2017-10-26T06:26:28.467Z,17.11
2017-10-26T06:27:09.002Z,17.15
2017-10-26T06:27:49.649Z,17.11
2017-10-26T06:28:30.163Z,17.07
2017-10-26T06:29:10.703Z,17.14
2017-10-26T06:29:51.242Z,17.14
2017-10-26T06:30:31.829Z,17.04
2017-10-26T06:31:12.356Z,17.08
2017-10-26T06:31:52.936Z,17.11
2017-10-26T06:32:33.528Z,17
2017-10-26T06:33:14.048Z,16.98
2017-10-26T06:33:54.561Z,16.97
2017-10-26T06:34:35.115Z,16.91
2017-10-26T06:35:15.711Z,16.94
2017-10-26T06:35:56.634Z,16.88
2017-10-26T06:36:37.160Z,16.93
2017-10-26T06:37:17.692Z,17
2017-10-26T06:39:06.054Z,17.08
2017-10-26T06:39:46.573Z,17.06
2017-10-26T06:40:27.214Z,17.04
2017-10-26T06:41:07.752Z,17.03
2017-10-26T06:41:48.298Z,17.08
2017-10-26T06:42:29.018Z,17.22
2017-10-26T06:43:09.773Z,17.22
2017-10-26T06:43:50.276Z,17.22
2017-10-26T06:44:30.798Z,17.21
2017-10-26T06:45:11.334Z,17.22
2017-10-26T06:45:51.814Z,17.25
2017-10-26T06:46:32.379Z,17.38
2017-10-26T06:47:12.911Z,17.43
2017-10-26T06:47:53.434Z,17.48
2017-10-26T06:48:33.969Z,17.48
2017-10-26T06:49:14.503Z,17.44
2017-10-26T06:49:55.019Z,17.54
2017-10-26T06:50:35.568Z,17.66
2017-10-26T06:51:16.122Z,17.64
2017-10-26T06:51:56.623Z,17.66
2017-10-26T06:52:37.197Z,17.62
2017-10-26T06:53:17.714Z,17.56
2017-10-26T06:53:58.249Z,17.68
2017-10-26T06:54:38.827Z,17.71
2017-10-26T06:55:19.338Z,17.75
2017-10-26T06:55:59.894Z,17.68
2017-10-26T06:56:40.496Z,17.71
2017-10-26T06:57:21.002Z,17.72
2017-10-26T06:58:01.486Z,17.75
2017-10-26T06:58:42.058Z,17.75
2017-10-26T06:59:22.614Z,17.82
2017-10-26T07:00:03.142Z,17.9
2017-10-26T07:00:43.678Z,17.75
2017-10-26T07:01:24.235Z,17.74
2017-10-26T07:02:04.787Z,17.79
2017-10-26T07:02:45.238Z,17.9
2017-10-26T07:03:25.867Z,17.96
2017-10-26T07:04:06.383Z,17.99
2017-10-26T07:04:47.055Z,18.03
2017-10-26T07:05:27.606Z,18.07
2017-10-26T07:06:08.162Z,18.12
2017-10-26T07:06:48.694Z,18.2
2017-10-26T07:07:29.244Z,18.21
2017-10-26T07:08:09.767Z,18.25
2017-10-26T07:08:50.303Z,18.2
2017-10-26T07:09:30.847Z,18.2
2017-10-26T07:10:11.480Z,18.2
2017-10-26T07:10:52.033Z,18.23
2017-10-26T07:11:32.595Z,18.25
2017-10-26T07:12:13.089Z,18.21
2017-10-26T07:12:53.654Z,18.17
2017-10-26T07:13:34.240Z,18.18
2017-10-26T07:14:14.845Z,18.2
2017-10-26T07:14:55.350Z,18.26
2017-10-26T07:15:35.895Z,18.15
2017-10-26T07:16:16.476Z,18.2
2017-10-26T07:16:57.005Z,18.29
2017-10-26T07:17:37.557Z,18.41
2017-10-26T07:18:18.153Z,18.45
2017-10-26T07:18:58.696Z,18.41
2017-10-26T07:19:39.191Z,18.45
2017-10-26T07:20:19.719Z,18.44
2017-10-26T07:21:00.308Z,18.47
2017-10-26T07:21:40.828Z,18.55
2017-10-26T07:22:21.380Z,18.54
2017-10-26T07:23:01.941Z,18.58
2017-10-26T07:23:42.510Z,18.62
2017-10-26T07:24:23.069Z,18.63
2017-10-26T07:25:03.577Z,18.78
2017-10-26T07:25:44.204Z,18.78
2017-10-26T07:26:24.737Z,18.78
2017-10-26T07:27:05.324Z,18.84
2017-10-26T07:27:45.888Z,18.82
2017-10-26T07:28:26.349Z,18.82
2017-10-26T07:29:06.908Z,18.76
2017-10-26T07:29:47.550Z,18.85
2017-10-26T07:30:28.099Z,18.78
2017-10-26T07:31:08.610Z,18.84
2017-10-26T07:31:49.116Z,18.92
2017-10-26T07:32:29.680Z,18.81
2017-10-26T07:33:10.224Z,18.73
2017-10-26T07:33:50.701Z,18.73
2017-10-26T07:34:31.288Z,18.7
2017-10-26T07:35:11.760Z,18.75
2017-10-26T07:35:52.415Z,18.63
2017-10-26T07:36:32.936Z,18.63
2017-10-26T07:37:13.505Z,18.62
2017-10-26T07:37:53.974Z,18.62
2017-10-26T07:38:34.537Z,18.67
2017-10-26T07:39:15.105Z,18.72
2017-10-26T07:39:55.660Z,18.72
2017-10-26T07:40:36.178Z,18.87
2017-10-26T07:41:16.739Z,18.88
2017-10-26T07:41:57.261Z,18.84
2017-10-26T07:42:38.192Z,18.9
2017-10-26T07:43:18.619Z,18.84
2017-10-26T07:43:59.203Z,18.88
2017-10-26T07:44:39.696Z,18.95
2017-10-26T07:45:20.280Z,18.95
2017-10-26T07:46:00.745Z,18.99
2017-10-26T07:46:41.371Z,19.04
2017-10-26T07:47:21.893Z,19.16
2017-10-26T07:48:02.588Z,19.13
2017-10-26T07:48:43.110Z,19.16
2017-10-26T07:49:23.632Z,19.11
2017-10-26T07:50:04.315Z,19.19
2017-10-26T07:50:44.856Z,19.13
2017-10-26T07:51:25.370Z,19.21
2017-10-26T07:52:05.913Z,19.16
2017-10-26T07:52:46.452Z,19.08
2017-10-26T07:53:27.001Z,19.18
2017-10-26T07:54:07.575Z,19.14
2017-10-26T07:54:48.066Z,19.13
2017-10-26T07:55:28.655Z,19.16
2017-10-26T07:56:09.158Z,19.14
2017-10-26T07:56:49.697Z,19.02
2017-10-26T07:57:30.223Z,19.11
2017-10-26T07:58:10.740Z,19.07
2017-10-26T07:58:51.275Z,19.07
2017-10-26T07:59:31.845Z,19.07
2017-10-26T08:00:12.356Z,19.02
2017-10-26T08:00:52.875Z,19.04
2017-10-26T08:01:33.383Z,19.08
2017-10-26T08:02:14.001Z,18.99
2017-10-26T08:02:54.536Z,19.1
2017-10-26T08:03:35.022Z,19.08
2017-10-26T08:04:15.695Z,19.16
2017-10-26T08:04:56.151Z,19.25
2017-10-26T08:05:36.752Z,19.23
2017-10-26T08:06:17.281Z,19.31
2017-10-26T08:06:57.852Z,19.26
2017-10-26T08:07:38.379Z,19.29
2017-10-26T08:08:18.909Z,19.29
2017-10-26T08:08:59.458Z,19.37
2017-10-26T08:09:40.045Z,19.4
2017-10-26T08:10:20.533Z,19.39
2017-10-26T08:11:01.085Z,19.44
2017-10-26T08:11:41.630Z,19.39
2017-10-26T08:12:22.191Z,19.44
2017-10-26T08:13:02.737Z,19.4
2017-10-26T08:13:43.346Z,19.36
2017-10-26T08:14:23.857Z,19.36
2017-10-26T08:15:04.404Z,19.26
2017-10-26T08:15:44.938Z,19.32
2017-10-26T08:16:25.622Z,19.31
2017-10-26T08:17:06.211Z,19.37
2017-10-26T08:17:46.714Z,19.37
2017-10-26T08:18:27.261Z,19.44
2017-10-26T08:19:07.808Z,19.37
2017-10-26T08:19:48.339Z,19.33
2017-10-26T08:20:28.878Z,19.47
2017-10-26T08:21:09.495Z,19.51
2017-10-26T08:21:49.985Z,19.56
2017-10-26T08:22:30.580Z,19.59
2017-10-26T08:23:11.061Z,19.71
2017-10-26T08:23:51.610Z,19.71
2017-10-26T08:24:32.169Z,19.65
2017-10-26T08:25:12.780Z,19.55
2017-10-26T08:25:53.234Z,19.62
2017-10-26T08:26:33.857Z,19.5
2017-10-26T08:27:14.356Z,19.44
2017-10-26T08:27:54.953Z,19.39
2017-10-26T08:28:35.711Z,19.39
2017-10-26T08:29:16.251Z,19.39
2017-10-26T08:29:56.771Z,19.46
2017-10-26T08:30:37.327Z,19.41
2017-10-26T08:31:17.786Z,19.51
2017-10-26T08:31:58.367Z,19.39
2017-10-26T08:32:38.918Z,19.4
2017-10-26T08:33:19.534Z,19.43
2017-10-26T08:34:00.018Z,19.41
2017-10-26T08:34:40.542Z,19.46
2017-10-26T08:35:21.148Z,19.5
2017-10-26T08:36:01.711Z,19.62
2017-10-26T08:36:42.305Z,19.55
2017-10-26T08:37:22.854Z,19.59
2017-10-26T08:38:03.418Z,19.69
2017-10-26T08:38:43.918Z,19.71
2017-10-26T08:39:24.504Z,19.73
2017-10-26T08:40:05.052Z,19.63
2017-10-26T08:40:45.574Z,19.76
2017-10-26T08:41:26.188Z,19.73
2017-10-26T08:42:06.700Z,19.76
2017-10-26T08:42:47.244Z,19.74
2017-10-26T08:43:27.780Z,19.87
2017-10-26T08:44:08.344Z,19.88
2017-10-26T08:44:48.826Z,19.84